Time;durP1;ratioP1;P1;durP2;ratioP2;P2;SDS_P1;SDS_P2;PMS_P1;PMS_P2;Temp;Humidity;BMP_temperature;BMP_pressure;BME280_temperature;BME280_humidity;BME280_pressure;Samples;Min_cycle;Max_cycle;Signal;HPM_P1;HPM_P2
2021/12/13 00:00:49;;;;;;;0.70;0.70;;;;;;;4.90;84.65;96342.84;4395358;32;20272;-63
2021/12/13 00:03:34;;;;;;;0.70;0.70;;;;;;;4.94;85.17;96341.34;4403050;32;20272;-64
2021/12/13 00:06:07;;;;;;;0.50;0.50;;;;;;;5.04;84.59;96340.75;4395503;32;20329;-64
2021/12/13 00:08:35;;;;;;;1.00;0.90;;;;;;;5.02;84.65;96335.72;4392362;32;20313;-63
2021/12/13 00:11:14;;;;;;;0.73;0.70;;;;;;;4.91;84.86;96346.28;4379917;32;20298;-63
2021/12/13 00:13:55;;;;;;;2.73;0.90;;;;;;;5.00;84.04;96347.50;4395103;32;20267;-64
2021/12/13 00:16:31;;;;;;;0.80;0.80;;;;;;;4.97;83.38;96348.78;4395166;32;20352;-64
2021/12/13 00:19:00;;;;;;;1.00;0.63;;;;;;;5.03;83.19;96352.28;4388276;32;20264;-64
2021/12/13 00:21:36;;;;;;;0.60;0.60;;;;;;;5.07;82.91;96346.34;4397654;32;20291;-63
2021/12/13 00:24:09;;;;;;;0.80;0.80;;;;;;;4.92;83.21;96350.50;4386339;32;20290;-64
2021/12/13 00:26:44;;;;;;;0.70;0.70;;;;;;;5.03;82.92;96347.84;4381905;32;20298;-63
2021/12/13 00:29:16;;;;;;;0.67;0.60;;;;;;;5.09;83.32;96351.38;4392994;32;20279;-63
2021/12/13 00:31:48;;;;;;;1.40;0.60;;;;;;;4.98;83.38;96344.31;4388854;32;20280;-64
2021/12/13 00:34:33;;;;;;;0.83;0.67;;;;;;;5.10;82.83;96350.34;4398000;32;20272;-63
2021/12/13 00:37:10;;;;;;;0.60;0.60;;;;;;;5.25;82.66;96344.56;4381172;32;20294;-64
2021/12/13 00:39:53;;;;;;;0.50;0.50;;;;;;;5.24;83.14;96353.50;4393789;32;20277;-64
2021/12/13 00:42:21;;;;;;;3.83;0.83;;;;;;;4.94;85.25;96346.62;4394700;32;20345;-64
2021/12/13 00:44:51;;;;;;;1.17;0.80;;;;;;;5.00;86.04;96350.13;4397958;32;20288;-64
2021/12/13 00:47:26;;;;;;;0.73;0.57;;;;;;;4.99;86.16;96362.47;4392033;32;20271;-64
2021/12/13 00:50:12;;;;;;;0.70;0.70;;;;;;;4.71;87.92;96355.34;4391503;32;20290;-64
2021/12/13 00:52:39;;;;;;;0.70;0.70;;;;;;;4.93;88.24;96355.53;4403748;32;20380;-64
2021/12/13 00:55:16;;;;;;;1.93;0.67;;;;;;;4.87;89.53;96364.34;4381541;32;20292;-64
2021/12/13 00:57:49;;;;;;;0.97;0.60;;;;;;;4.81;90.60;96357.37;4392211;32;20263;-64
2021/12/13 01:00:27;;;;;;;0.83;0.77;;;;;;;4.82;91.34;96357.13;4389911;32;20268;-64
2021/12/13 01:03:00;;;;;;;1.53;0.70;;;;;;;4.77;92.48;96357.06;4388231;32;20335;-64
2021/12/13 01:05:31;;;;;;;1.00;0.90;;;;;;;4.82;92.87;96358.97;4397447;32;20295;-64
2021/12/13 01:08:09;;;;;;;0.93;0.67;;;;;;;4.67;93.46;96362.06;4389068;32;20276;-63
2021/12/13 01:11:11;;;;;;;0.90;0.63;;;;;;;4.82;94.00;96362.41;4399953;32;20302;-63
2021/12/13 01:13:42;;;;;;;1.30;0.53;;;;;;;4.85;94.13;96361.12;4405725;32;20294;-63
2021/12/13 01:17:07;;;;;;;0.60;0.60;;;;;;;4.82;94.49;96370.28;4401237;32;20331;-63
2021/12/13 01:19:52;;;;;;;0.63;0.63;;;;;;;4.84;94.78;96370.06;4373011;32;20350;-63
2021/12/13 01:25:18;;;;;;;0.70;0.70;;;;;;;4.86;95.46;96367.19;4395029;32;20290;-63
2021/12/13 01:27:49;;;;;;;0.60;0.60;;;;;;;4.84;95.41;96381.37;4389862;32;20388;-63
2021/12/13 01:30:32;;;;;;;1.30;0.57;;;;;;;4.94;95.47;96377.38;4381199;32;20271;-63
2021/12/13 01:32:59;;;;;;;1.10;0.80;;;;;;;4.83;95.52;96385.03;4403513;32;20313;-63
2021/12/13 01:35:30;;;;;;;1.00;0.70;;;;;;;4.78;95.76;96376.25;4392017;32;20324;-63
2021/12/13 01:38:03;;;;;;;1.03;0.63;;;;;;;4.67;96.99;96384.94;4405885;32;20367;-63
2021/12/13 01:40:32;;;;;;;0.83;0.53;;;;;;;4.66;96.89;96378.06;4391193;32;20282;-63
2021/12/13 01:43:10;;;;;;;1.83;0.60;;;;;;;4.79;96.84;96385.69;4405356;32;20327;-63
2021/12/13 01:45:38;;;;;;;0.90;0.50;;;;;;;4.75;96.92;96382.75;4404189;32;20275;-63
2021/12/13 01:48:05;;;;;;;0.80;0.80;;;;;;;4.86;96.54;96389.03;4390196;32;20307;-63
2021/12/13 01:50:44;;;;;;;0.63;0.63;;;;;;;4.82;96.48;96387.87;4394792;32;20299;-63
2021/12/13 01:53:10;;;;;;;0.77;0.77;;;;;;;4.83;96.75;96390.28;4379924;32;20314;-63
2021/12/13 01:55:40;;;;;;;0.90;0.70;;;;;;;4.74;97.75;96386.41;4394473;32;20276;-63
2021/12/13 02:01:10;;;;;;;0.70;0.67;;;;;;;4.87;97.41;96389.81;4406809;32;20317;-63
2021/12/13 02:03:52;;;;;;;0.50;0.50;;;;;;;4.82;97.24;96387.87;4408523;32;20299;-63
2021/12/13 02:06:42;;;;;;;0.50;0.50;;;;;;;4.91;97.37;96383.09;4393309;32;20334;-64
2021/12/13 02:09:14;;;;;;;1.23;0.50;;;;;;;4.86;97.71;96378.50;4393930;32;20373;-64
2021/12/13 02:11:42;;;;;;;0.67;0.67;;;;;;;4.88;97.78;96384.34;4387977;32;20279;-63
2021/12/13 02:14:17;;;;;;;1.03;0.70;;;;;;;4.76;97.59;96384.38;4408711;32;21849;-63
2021/12/13 02:17:12;;;;;;;2.87;0.70;;;;;;;4.78;98.09;96387.53;4391944;32;20284;-63
2021/12/13 02:19:46;;;;;;;0.93;0.37;;;;;;;4.69;98.36;96391.56;4396561;32;20359;-63
2021/12/13 02:22:27;;;;;;;0.47;0.40;;;;;;;4.81;98.45;96387.06;4393953;32;20301;-63
2021/12/13 02:24:55;;;;;;;0.60;0.60;;;;;;;4.84;98.09;96385.81;4401723;32;20290;-63
2021/12/13 02:27:24;;;;;;;0.60;0.60;;;;;;;4.80;98.23;96384.69;4407786;32;20340;-63
2021/12/13 02:29:53;;;;;;;0.67;0.63;;;;;;;4.64;99.11;96388.81;4394096;32;20272;-63
2021/12/13 02:32:19;;;;;;;0.87;0.50;;;;;;;4.75;99.01;96388.03;4408357;32;20271;-63
2021/12/13 02:34:44;;;;;;;1.07;0.60;;;;;;;4.82;98.44;96391.31;4409544;32;20312;-65
2021/12/13 02:37:13;;;;;;;1.27;0.40;;;;;;;4.77;98.58;96388.59;4393828;32;20228;-65
2021/12/13 02:39:49;;;;;;;0.50;0.50;;;;;;;4.69;98.67;96391.56;4408117;32;20318;-65
2021/12/13 02:42:17;;;;;;;0.47;0.47;;;;;;;4.81;99.18;96389.72;4391704;32;20298;-65
2021/12/13 02:44:47;;;;;;;1.27;0.43;;;;;;;4.83;98.81;96387.66;4394624;32;20324;-65
2021/12/13 02:47:22;;;;;;;1.10;0.67;;;;;;;4.77;98.94;96396.47;4393001;32;20303;-65
2021/12/13 02:49:48;;;;;;;0.73;0.50;;;;;;;4.84;98.90;96394.50;4391555;32;20359;-62
2021/12/13 02:52:18;;;;;;;0.60;0.60;;;;;;;4.81;98.84;96388.91;4389670;32;20288;-62
2021/12/13 02:54:47;;;;;;;0.70;0.70;;;;;;;4.90;98.84;96389.38;4371435;32;20298;-62
2021/12/13 02:57:20;;;;;;;1.40;0.60;;;;;;;4.84;98.76;96393.72;4377399;32;20268;-62
2021/12/13 03:00:11;;;;;;;1.30;0.67;;;;;;;4.91;98.52;96401.47;4373549;32;20349;-62
2021/12/13 03:02:41;;;;;;;0.80;0.80;;;;;;;4.90;98.70;96395.44;4391308;32;20286;-62
2021/12/13 03:05:14;;;;;;;0.70;0.70;;;;;;;4.96;98.13;96388.44;4395729;32;20291;-62
2021/12/13 03:07:45;;;;;;;0.70;0.57;;;;;;;4.66;99.28;96392.00;4398929;32;20291;-62
2021/12/13 03:10:16;;;;;;;0.33;0.33;;;;;;;4.72;99.23;96393.72;4407681;32;20271;-62
2021/12/13 03:12:42;;;;;;;0.47;0.47;;;;;;;4.81;99.27;96396.78;4395458;32;20295;-62
2021/12/13 03:15:17;;;;;;;0.83;0.63;;;;;;;4.79;99.33;96393.59;4407365;32;20279;-62
2021/12/13 03:17:55;;;;;;;0.60;0.60;;;;;;;4.83;99.28;96395.53;4387364;32;20184;-62
2021/12/13 03:20:23;;;;;;;0.60;0.60;;;;;;;4.92;99.17;96397.81;4394555;32;20336;-63
2021/12/13 03:23:23;;;;;;;0.57;0.57;;;;;;;4.94;98.75;96393.94;4397843;32;20348;-63
2021/12/13 03:26:06;;;;;;;0.60;0.60;;;;;;;4.91;98.75;96401.47;4409239;32;20353;-63
2021/12/13 03:28:48;;;;;;;0.67;0.67;;;;;;;4.72;99.50;96399.00;4396040;32;20283;-63
2021/12/13 03:31:24;;;;;;;1.03;0.43;;;;;;;4.82;99.91;96399.19;4395883;32;20291;-63
2021/12/13 03:34:01;;;;;;;0.70;0.60;;;;;;;4.80;99.68;96398.63;4395209;32;20371;-63
2021/12/13 03:36:38;;;;;;;1.03;0.40;;;;;;;4.90;99.48;96395.44;4410463;32;20338;-63
2021/12/13 03:39:06;;;;;;;0.43;0.43;;;;;;;4.84;99.31;96391.06;4405971;32;20330;-63
2021/12/13 03:41:35;;;;;;;0.57;0.57;;;;;;;4.77;99.71;96390.41;4389366;32;20325;-63
2021/12/13 03:44:08;;;;;;;1.23;0.70;;;;;;;4.91;99.75;96389.13;4391756;32;20339;-63
2021/12/13 03:46:35;;;;;;;0.50;0.50;;;;;;;4.96;99.52;96385.81;4393144;32;20371;-63
2021/12/13 03:49:05;;;;;;;0.83;0.80;;;;;;;4.95;99.48;96378.97;4392782;32;20306;-63
2021/12/13 03:51:35;;;;;;;0.50;0.50;;;;;;;4.77;100.00;96385.16;4392569;32;20295;-62
2021/12/13 03:54:04;;;;;;;0.67;0.67;;;;;;;4.96;100.00;96386.63;4407401;32;20278;-63
2021/12/13 03:56:34;;;;;;;0.50;0.50;;;;;;;5.06;99.91;96388.66;4392680;32;20280;-63
2021/12/13 03:59:06;;;;;;;0.90;0.90;;;;;;;5.00;99.49;96389.56;4393235;32;20286;-63
2021/12/13 04:01:41;;;;;;;0.70;0.60;;;;;;;4.97;99.59;96390.06;4384880;32;20299;-63
2021/12/13 04:04:13;;;;;;;1.70;0.60;;;;;;;4.91;100.00;96394.41;4406390;32;20278;-62
2021/12/13 04:06:49;;;;;;;0.60;0.50;;;;;;;4.86;100.00;96396.91;4392238;32;20361;-63
2021/12/13 04:09:16;;;;;;;0.93;0.87;;;;;;;4.83;100.00;96398.16;4406634;32;20276;-62
2021/12/13 04:11:44;;;;;;;0.67;0.60;;;;;;;4.91;100.00;96396.22;4394924;32;20286;-62
2021/12/13 04:14:22;;;;;;;0.50;0.50;;;;;;;4.89;100.00;96393.81;4392519;32;20404;-62
2021/12/13 04:17:06;;;;;;;0.83;0.70;;;;;;;5.01;100.00;96399.06;4389334;32;20290;-62
2021/12/13 04:20:04;;;;;;;0.87;0.60;;;;;;;4.90;100.00;96394.63;4405537;32;20267;-62
2021/12/13 04:22:33;;;;;;;0.50;0.50;;;;;;;4.90;100.00;96392.00;4387029;32;20343;-62
2021/12/13 04:25:25;;;;;;;0.60;0.60;;;;;;;4.95;100.00;96397.38;4393083;32;20299;-62
2021/12/13 04:28:02;;;;;;;2.00;0.50;;;;;;;4.95;100.00;96402.63;4404126;32;20294;-62
2021/12/13 04:30:34;;;;;;;0.30;0.30;;;;;;;4.97;100.00;96400.56;4392697;32;20267;-62
2021/12/13 04:33:04;;;;;;;0.40;0.40;;;;;;;5.05;100.00;96408.88;4406097;32;20280;-62
2021/12/13 04:35:30;;;;;;;0.50;0.50;;;;;;;5.03;100.00;96415.41;4404393;32;20291;-62
2021/12/13 04:37:58;;;;;;;0.77;0.63;;;;;;;5.04;100.00;96411.75;4406267;32;20276;-62
2021/12/13 04:40:37;;;;;;;0.70;0.70;;;;;;;5.04;100.00;96417.81;4405545;32;20227;-65
2021/12/13 04:43:13;;;;;;;0.83;0.50;;;;;;;5.17;100.00;96422.84;4406648;32;20278;-64
2021/12/13 04:45:42;;;;;;;1.20;0.70;;;;;;;5.21;100.00;96417.09;4405618;32;20342;-65
2021/12/13 04:48:18;;;;;;;0.60;0.60;;;;;;;5.25;100.00;96424.28;4392084;32;20294;-65
2021/12/13 04:51:11;;;;;;;0.50;0.50;;;;;;;5.21;100.00;96424.97;4402548;32;20309;-65
2021/12/13 04:53:49;;;;;;;0.63;0.63;;;;;;;5.16;100.00;96421.22;4392508;32;20310;-65
2021/12/13 04:56:21;;;;;;;0.30;0.30;;;;;;;5.20;100.00;96426.81;4393026;32;20325;-65
2021/12/13 04:58:48;;;;;;;0.60;0.60;;;;;;;5.29;100.00;96429.88;4406011;32;20341;-65
2021/12/13 05:01:15;;;;;;;0.50;0.50;;;;;;;5.30;100.00;96432.28;4402213;32;20280;-65
2021/12/13 05:03:44;;;;;;;0.80;0.80;;;;;;;5.23;100.00;96431.59;4390431;32;20279;-65
2021/12/13 05:06:14;;;;;;;1.07;0.40;;;;;;;5.11;100.00;96436.09;4406478;32;20376;-65
2021/12/13 05:08:41;;;;;;;0.57;0.57;;;;;;;5.07;100.00;96434.94;4403483;32;20374;-65
2021/12/13 05:11:09;;;;;;;0.67;0.67;;;;;;;5.13;100.00;96436.66;4391820;32;20333;-65
2021/12/13 05:13:44;;;;;;;0.70;0.70;;;;;;;5.30;100.00;96434.91;4391594;32;20336;-65
2021/12/13 05:16:11;;;;;;;0.60;0.53;;;;;;;5.24;100.00;96430.56;4393131;32;20370;-65
2021/12/13 05:18:49;;;;;;;0.60;0.60;;;;;;;5.33;100.00;96434.47;4395237;32;20276;-65
2021/12/13 05:21:28;;;;;;;0.50;0.50;;;;;;;5.37;100.00;96432.97;4392200;32;20339;-65
2021/12/13 05:24:01;;;;;;;0.43;0.43;;;;;;;5.35;100.00;96429.75;4404631;32;20294;-66
2021/12/13 05:26:35;;;;;;;0.60;0.60;;;;;;;5.40;100.00;96448.25;4406224;32;20298;-66
2021/12/13 05:29:04;;;;;;;0.87;0.60;;;;;;;5.46;100.00;96436.03;4404655;32;20271;-65
2021/12/13 05:31:30;;;;;;;0.53;0.47;;;;;;;5.48;100.00;96441.84;4403974;32;20316;-65
2021/12/13 05:34:04;;;;;;;0.90;0.90;;;;;;;5.40;100.00;96448.25;4403866;32;20316;-65
2021/12/13 05:36:34;;;;;;;0.73;0.73;;;;;;;5.25;100.00;96440.06;4386312;32;20184;-65
2021/12/13 05:39:11;;;;;;;0.70;0.70;;;;;;;5.25;100.00;96445.31;4404413;32;20275;-65
2021/12/13 05:41:38;;;;;;;0.70;0.70;;;;;;;5.33;100.00;96449.44;4405654;32;20281;-65
2021/12/13 05:44:10;;;;;;;1.03;1.03;;;;;;;5.35;100.00;96450.81;4405563;32;20283;-65
2021/12/13 05:46:42;;;;;;;0.87;0.87;;;;;;;5.46;100.00;96452.59;4391594;32;20293;-64
2021/12/13 05:49:18;;;;;;;0.80;0.80;;;;;;;5.58;100.00;96449.16;4388850;32;20289;-64
2021/12/13 05:51:49;;;;;;;0.80;0.80;;;;;;;5.65;100.00;96453.25;4404752;32;20312;-64
2021/12/13 05:54:27;;;;;;;1.90;1.23;;;;;;;5.50;100.00;96443.22;4403793;32;20342;-64
2021/12/13 05:57:07;;;;;;;1.00;1.00;;;;;;;5.42;100.00;96446.19;4389102;32;20335;-63
2021/12/13 05:59:52;;;;;;;1.50;1.20;;;;;;;5.33;100.00;96447.63;4368366;32;20298;-64
2021/12/13 06:02:39;;;;;;;0.83;0.80;;;;;;;5.33;100.00;96447.63;4404269;32;20312;-64
2021/12/13 06:05:14;;;;;;;0.90;0.90;;;;;;;5.40;100.00;96447.50;4402557;32;20303;-64
2021/12/13 06:07:41;;;;;;;1.03;1.03;;;;;;;5.29;100.00;96446.47;4406802;32;21850;-64
2021/12/13 06:10:16;;;;;;;1.53;1.10;;;;;;;5.40;100.00;96450.13;4385255;32;20351;-64
2021/12/13 06:12:44;;;;;;;1.17;1.17;;;;;;;5.27;100.00;96445.09;4383120;32;20270;-63
2021/12/13 06:15:15;;;;;;;1.33;1.23;;;;;;;5.38;100.00;96450.34;4394734;32;20276;-64
2021/12/13 06:17:55;;;;;;;1.07;1.07;;;;;;;5.45;100.00;96444.94;4407956;32;20364;-64
2021/12/13 06:20:29;;;;;;;1.00;0.90;;;;;;;5.51;100.00;96450.09;4404474;32;20279;-64
2021/12/13 06:23:11;;;;;;;1.20;1.10;;;;;;;5.46;100.00;96444.72;4404871;32;20329;-64
2021/12/13 06:25:38;;;;;;;1.63;1.40;;;;;;;5.61;100.00;96443.44;4402359;32;20267;-64
2021/12/13 06:28:05;;;;;;;2.23;1.30;;;;;;;5.54;100.00;96446.19;4407383;32;20354;-64
2021/12/13 06:30:34;;;;;;;1.83;1.20;;;;;;;5.50;100.00;96442.41;4397457;32;20276;-64
2021/12/13 06:33:07;;;;;;;1.40;1.30;;;;;;;5.52;100.00;96445.62;4401893;32;20291;-64
2021/12/13 06:35:45;;;;;;;2.03;1.30;;;;;;;5.52;100.00;96456.94;4392283;32;20339;-63
2021/12/13 06:38:19;;;;;;;1.23;1.20;;;;;;;5.57;100.00;96461.53;4393455;32;20329;-64
2021/12/13 06:40:54;;;;;;;1.27;1.27;;;;;;;5.49;100.00;96461.88;4394193;32;20288;-64
2021/12/13 06:43:28;;;;;;;3.33;1.50;;;;;;;5.52;100.00;96461.41;4397553;32;20301;-63
2021/12/13 06:45:54;;;;;;;1.23;1.13;;;;;;;5.66;100.00;96464.56;4392100;32;20274;-64
2021/12/13 06:48:32;;;;;;;2.40;1.13;;;;;;;5.69;100.00;96466.75;4393561;32;20280;-65
2021/12/13 06:50:58;;;;;;;0.80;0.80;;;;;;;5.68;100.00;96460.66;4394815;32;20293;-64
2021/12/13 06:53:23;;;;;;;1.20;1.10;;;;;;;5.52;100.00;96472.75;4396910;32;20310;-64
2021/12/13 06:55:49;;;;;;;1.93;1.20;;;;;;;5.65;100.00;96471.66;4410009;32;20222;-64
2021/12/13 06:58:24;;;;;;;2.13;2.00;;;;;;;5.68;100.00;96465.94;4407459;32;20251;-63
2021/12/13 07:00:53;;;;;;;2.73;1.60;;;;;;;5.86;100.00;96467.59;4395536;32;20203;-63
2021/12/13 07:03:27;;;;;;;1.70;1.47;;;;;;;5.72;100.00;96482.88;4402228;32;20296;-64
2021/12/13 07:05:57;;;;;;;1.47;1.37;;;;;;;5.81;100.00;96486.75;4382066;32;20398;-64
2021/12/13 07:08:36;;;;;;;1.37;1.27;;;;;;;5.90;100.00;96489.81;4407219;32;20286;-65
2021/12/13 07:11:06;;;;;;;2.80;1.30;;;;;;;5.96;100.00;96488.09;4393544;32;20336;-64
2021/12/13 07:13:39;;;;;;;1.70;1.60;;;;;;;5.96;100.00;96499.44;4406493;32;20288;-64
2021/12/13 07:16:15;;;;;;;4.30;1.43;;;;;;;5.92;99.83;96498.28;4392770;32;20315;-64
2021/12/13 07:18:55;;;;;;;5.07;1.73;;;;;;;5.93;99.93;96489.34;4388757;32;20369;-49
2021/12/13 07:21:26;;;;;;;31.97;3.63;;;;;;;6.28;100.00;96501.56;4403911;32;20337;-58
2021/12/13 07:23:54;;;;;;;6.80;1.13;;;;;;;8.44;100.00;96498.75;4402246;32;20279;-45
2021/12/13 07:26:28;;;;;;;4.00;0.93;;;;;;;9.63;90.90;96495.63;4391698;32;20283;-50
2021/12/13 07:28:54;;;;;;;1.67;1.40;;;;;;;10.65;81.40;96500.19;4390198;32;20306;-52
2021/12/13 07:31:20;;;;;;;2.10;1.00;;;;;;;11.11;77.12;96510.03;4394919;32;20287;-54
2021/12/13 07:33:45;;;;;;;3.50;0.90;;;;;;;11.39;74.54;96504.16;4394043;32;20188;-51
2021/12/13 07:36:27;;;;;;;0.80;0.80;;;;;;;11.84;72.34;96502.47;4407802;32;20177;-52
2021/12/13 07:39:00;;;;;;;0.80;0.80;;;;;;;11.99;71.05;96510.41;4391708;32;20310;-49
2021/12/13 07:41:37;;;;;;;1.47;1.30;;;;;;;12.21;69.43;96518.81;4406601;32;20187;-63
2021/12/13 07:44:03;;;;;;;3.03;2.00;;;;;;;11.56;71.18;96517.94;4391336;32;20206;-65
2021/12/13 07:46:30;;;;;;;1.70;1.60;;;;;;;10.23;76.21;96528.78;4401914;32;20200;-64
2021/12/13 07:49:10;;;;;;;1.83;1.73;;;;;;;9.28;80.39;96523.53;4418551;32;20233;-64
2021/12/13 07:51:46;;;;;;;2.20;2.07;;;;;;;8.41;84.85;96531.78;4391025;32;20180;-60
2021/12/13 07:54:18;;;;;;;2.10;1.93;;;;;;;7.83;88.09;96525.31;4403134;32;20183;-59
2021/12/13 07:56:51;;;;;;;2.20;2.10;;;;;;;7.28;91.38;96527.19;4394163;32;20199;-63
2021/12/13 07:59:22;;;;;;;2.70;2.50;;;;;;;7.03;93.03;96536.34;4398764;32;20283;-62
2021/12/13 08:02:05;;;;;;;3.10;2.57;;;;;;;6.93;93.87;96533.53;4402446;32;20296;-65
2021/12/13 08:04:44;;;;;;;2.83;2.63;;;;;;;6.62;95.13;96534.88;4402532;32;20308;-64
2021/12/13 08:07:16;;;;;;;2.90;2.60;;;;;;;6.67;95.38;96529.66;4395113;32;20289;-62
2021/12/13 08:09:48;;;;;;;2.77;2.57;;;;;;;6.68;96.06;96539.19;4392518;32;20301;-61
2021/12/13 08:12:18;;;;;;;3.33;3.03;;;;;;;6.75;95.52;96539.84;4405946;32;20320;-65
2021/12/13 08:14:47;;;;;;;2.93;2.63;;;;;;;6.51;96.58;96543.63;4405810;32;20299;-64
2021/12/13 08:17:23;;;;;;;3.33;2.80;;;;;;;6.54;96.62;96538.69;4406996;32;20325;-64
2021/12/13 08:19:57;;;;;;;3.10;2.90;;;;;;;6.62;96.75;96540.16;4413625;32;20298;-65
2021/12/13 08:22:28;;;;;;;2.93;2.73;;;;;;;6.69;96.59;96542.63;4398400;32;20283;-64
2021/12/13 08:24:58;;;;;;;3.90;3.60;;;;;;;6.78;96.36;96539.34;4392348;32;20271;-65
2021/12/13 08:27:34;;;;;;;3.23;2.90;;;;;;;6.62;96.93;96545.41;4392304;32;20328;-66
2021/12/13 08:30:09;;;;;;;3.43;3.13;;;;;;;6.80;96.48;96547.03;4406360;32;20283;-65
2021/12/13 08:32:35;;;;;;;3.50;3.20;;;;;;;6.71;96.65;96546.63;4405087;32;20336;-66
2021/12/13 08:35:05;;;;;;;2.87;2.67;;;;;;;6.66;97.23;96551.78;4391628;32;20276;-66
2021/12/13 08:37:35;;;;;;;9.20;3.27;;;;;;;6.70;96.79;96552.91;4386661;32;20318;-52
2021/12/13 08:40:05;;;;;;;3.93;2.33;;;;;;;8.55;98.73;96542.75;4406050;32;20284;-56
2021/12/13 08:42:37;;;;;;;4.07;1.80;;;;;;;11.74;80.71;96539.69;4407955;32;20313;-55
2021/12/13 08:45:22;;;;;;;3.77;1.70;;;;;;;15.87;65.83;96535.91;4400224;32;20180;-53
2021/12/13 08:47:55;;;;;;;1.93;1.60;;;;;;;16.64;55.71;96546.66;4406969;32;20184;-52
2021/12/13 08:50:25;;;;;;;2.67;2.00;;;;;;;16.68;55.89;96545.78;4408772;32;20187;-55
2021/12/13 08:52:58;;;;;;;2.87;1.80;;;;;;;16.30;56.41;96553.25;4394901;32;20188;-55
2021/12/13 08:55:39;;;;;;;3.40;1.90;;;;;;;17.30;55.49;96555.87;4391153;32;20188;-52
2021/12/13 08:58:06;;;;;;;3.07;1.57;;;;;;;17.55;52.52;96560.62;4405979;32;20274;-49
2021/12/13 09:00:42;;;;;;;1.87;1.77;;;;;;;18.35;51.17;96559.56;4391512;32;20188;-52
2021/12/13 09:03:11;;;;;;;1.87;1.77;;;;;;;16.99;51.17;96561.97;4389711;32;20187;-65
2021/12/13 09:06:18;;;;;;;1.77;1.73;;;;;;;16.03;53.95;96571.97;4392025;32;20184;-63
2021/12/13 09:08:55;;;;;;;2.33;2.13;;;;;;;13.46;62.32;96565.38;4396820;32;20202;-65
2021/12/13 09:11:36;;;;;;;2.00;1.90;;;;;;;11.75;69.66;96565.22;4384175;32;20241;-64
2021/12/13 09:14:07;;;;;;;2.30;2.20;;;;;;;10.06;76.61;96578.53;4385887;32;20235;-63
2021/12/13 09:17:13;;;;;;;2.40;2.30;;;;;;;9.43;80.07;96570.50;4405742;32;20286;-63
2021/12/13 09:19:44;;;;;;;2.93;2.60;;;;;;;8.82;83.21;96562.06;4391331;32;20192;-67
2021/12/13 09:22:21;;;;;;;2.73;2.53;;;;;;;8.45;85.76;96569.09;4391465;32;20282;-66
2021/12/13 09:24:46;;;;;;;2.37;1.93;;;;;;;8.42;86.37;96569.59;4392135;32;20205;-66
2021/12/13 09:27:24;;;;;;;2.80;2.60;;;;;;;8.22;87.45;96565.66;4406042;32;20192;-68
2021/12/13 09:30:11;;;;;;;2.70;2.50;;;;;;;7.80;89.78;96567.25;4392829;32;20184;-67
2021/12/13 09:32:49;;;;;;;2.50;2.30;;;;;;;7.64;90.71;96565.47;4393080;32;20200;-68
2021/12/13 09:35:21;;;;;;;2.80;2.60;;;;;;;7.71;91.83;96566.06;4392158;32;20324;-66
2021/12/13 09:37:47;;;;;;;3.10;2.80;;;;;;;7.59;92.32;96566.97;4420777;32;20283;-65
2021/12/13 09:40:15;;;;;;;3.03;2.80;;;;;;;7.47;93.05;96558.38;4411882;32;20294;-66
2021/12/13 09:42:53;;;;;;;3.47;3.17;;;;;;;7.55;92.84;96563.22;4397402;32;20302;-65
2021/12/13 09:45:27;;;;;;;4.17;3.10;;;;;;;7.73;92.40;96556.06;4409318;32;20298;-66
2021/12/13 09:47:53;;;;;;;4.17;3.00;;;;;;;7.75;92.75;96554.78;4386000;32;20338;-67
2021/12/13 09:50:24;;;;;;;3.67;3.40;;;;;;;7.37;93.83;96560.84;4394419;32;20288;-66
2021/12/13 09:52:58;;;;;;;3.23;3.03;;;;;;;7.33;94.89;96559.72;4401355;32;20252;-66
2021/12/13 09:55:33;;;;;;;2.43;2.23;;;;;;;7.54;93.90;96550.25;4411918;32;20286;-65
2021/12/13 09:58:19;;;;;;;3.97;2.90;;;;;;;7.40;93.88;96557.72;4394282;32;20307;-65
2021/12/13 10:00:53;;;;;;;2.80;2.60;;;;;;;7.65;93.51;96553.84;4413236;32;20364;-66
2021/12/13 10:03:24;;;;;;;2.17;1.97;;;;;;;7.53;93.13;96552.09;4392877;32;20272;-66
2021/12/13 10:05:54;;;;;;;3.40;3.10;;;;;;;7.68;92.84;96542.81;4393909;32;20279;-65
2021/12/13 10:08:36;;;;;;;3.10;2.90;;;;;;;7.39;94.16;96542.94;4394407;32;20287;-66
2021/12/13 10:11:11;;;;;;;3.73;3.33;;;;;;;7.70;93.41;96553.91;4408394;32;20295;-66
2021/12/13 10:13:40;;;;;;;3.10;2.90;;;;;;;7.63;93.51;96548.81;4395301;32;20346;-65
2021/12/13 10:16:09;;;;;;;3.90;3.60;;;;;;;7.72;93.66;96542.03;4407830;32;20283;-66
2021/12/13 10:18:39;;;;;;;2.97;2.80;;;;;;;7.57;94.40;96542.66;4408373;32;20277;-66
2021/12/13 10:21:10;;;;;;;3.70;3.40;;;;;;;7.63;94.38;96540.09;4386089;32;20318;-67
2021/12/13 10:23:39;;;;;;;3.30;3.10;;;;;;;7.73;93.34;96537.56;4398804;32;20410;-68
2021/12/13 10:26:08;;;;;;;3.50;3.20;;;;;;;7.47;94.54;96531.16;4392013;32;20330;-70
2021/12/13 10:28:40;;;;;;;3.53;2.73;;;;;;;7.64;94.16;96529.28;4394356;32;20329;-67
2021/12/13 10:31:18;;;;;;;2.93;2.73;;;;;;;7.95;93.15;96527.81;4398443;32;20271;-67
2021/12/13 10:33:45;;;;;;;3.00;2.80;;;;;;;7.55;93.82;96528.09;4404908;32;20316;-68
2021/12/13 10:36:11;;;;;;;2.50;2.40;;;;;;;7.66;93.43;96526.41;4408396;32;20284;-67
2021/12/13 10:38:48;;;;;;;4.17;3.00;;;;;;;7.69;93.21;96523.28;4406886;32;20303;-65
2021/12/13 10:41:21;;;;;;;3.00;2.80;;;;;;;7.75;92.91;96524.91;4387280;32;20210;-66
2021/12/13 10:43:58;;;;;;;3.50;3.30;;;;;;;7.70;92.95;96525.66;4385815;32;20284;-65
2021/12/13 10:46:29;;;;;;;3.10;2.90;;;;;;;7.43;94.36;96522.94;4393055;32;20283;-65
2021/12/13 10:49:06;;;;;;;3.93;3.63;;;;;;;7.65;93.41;96522.97;4402315;32;20272;-66
2021/12/13 10:51:37;;;;;;;3.20;3.00;;;;;;;7.70;93.55;96515.09;4389047;32;20392;-64
2021/12/13 10:54:11;;;;;;;3.17;3.00;;;;;;;7.99;92.56;96517.53;4393982;32;20276;-65
2021/12/13 10:56:43;;;;;;;3.27;3.07;;;;;;;7.98;92.22;96522.03;4397414;32;20371;-62
2021/12/13 10:59:14;;;;;;;3.80;3.50;;;;;;;8.09;91.78;96518.47;4406304;32;20294;-63
2021/12/13 11:01:43;;;;;;;4.90;3.87;;;;;;;8.09;91.96;96517.69;4389773;32;20314;-63
2021/12/13 11:04:13;;;;;;;4.20;4.00;;;;;;;8.13;92.14;96514.25;4403482;32;20267;-63
2021/12/13 11:06:40;;;;;;;4.47;4.13;;;;;;;8.32;90.79;96511.28;4402482;32;20298;-66
2021/12/13 11:09:10;;;;;;;4.90;4.60;;;;;;;8.46;90.33;96509.87;4399862;32;20294;-60
2021/12/13 11:11:44;;;;;;;4.37;4.00;;;;;;;8.27;90.99;96515.50;4391130;32;20350;-64
2021/12/13 11:14:17;;;;;;;4.17;3.90;;;;;;;8.19;91.47;96508.00;4409237;32;20283;-64
2021/12/13 11:16:47;;;;;;;4.90;4.50;;;;;;;7.76;93.07;96513.31;4411696;32;20288;-64
2021/12/13 11:19:18;;;;;;;5.27;4.77;;;;;;;7.74;93.44;96505.63;4390480;32;20287;-63
2021/12/13 11:21:48;;;;;;;4.50;4.20;;;;;;;7.82;93.67;96505.22;4385399;32;20326;-63
2021/12/13 11:24:19;;;;;;;4.97;4.63;;;;;;;8.12;92.67;96502.09;4393431;32;20302;-64
2021/12/13 11:26:48;;;;;;;4.23;3.93;;;;;;;8.05;92.77;96506.81;4391539;32;20294;-64
2021/12/13 11:29:15;;;;;;;4.10;3.70;;;;;;;8.14;92.59;96499.22;4406382;32;20291;-63
2021/12/13 11:32:31;;;;;;;3.80;3.60;;;;;;;7.97;93.01;96504.59;4391252;32;20317;-63
2021/12/13 11:35:23;;;;;;;3.50;3.30;;;;;;;8.01;92.66;96492.47;4394553;32;20291;-63
2021/12/13 11:38:05;;;;;;;3.87;3.57;;;;;;;8.18;91.75;96497.66;4402042;32;20276;-63
2021/12/13 11:41:08;;;;;;;3.77;3.47;;;;;;;8.20;91.63;96491.09;4405461;32;20336;-63
2021/12/13 11:43:54;;;;;;;4.00;3.60;;;;;;;8.05;91.92;96485.66;4392543;32;20358;-64
2021/12/13 11:46:29;;;;;;;4.17;3.87;;;;;;;8.23;91.64;96479.22;4398289;32;20279;-63
2021/12/13 11:49:03;;;;;;;3.80;3.50;;;;;;;8.35;91.61;96477.25;4391838;32;20279;-63
2021/12/13 11:51:59;;;;;;;3.80;3.50;;;;;;;8.28;91.03;96477.44;4393095;32;20353;-63
2021/12/13 11:54:48;;;;;;;4.27;4.07;;;;;;;8.27;91.53;96472.41;4406040;32;20279;-63
2021/12/13 11:57:48;;;;;;;5.37;4.13;;;;;;;8.07;92.64;96478.28;4401287;32;20366;-63
2021/12/13 12:00:42;;;;;;;4.20;3.83;;;;;;;7.99;92.99;96472.63;4405913;32;20284;-63
2021/12/13 12:03:42;;;;;;;4.80;4.43;;;;;;;8.34;92.14;96478.31;4405044;32;20279;-64
2021/12/13 12:06:45;;;;;;;4.10;3.80;;;;;;;8.20;91.43;96467.31;4390778;32;20295;-63
2021/12/13 12:09:22;;;;;;;3.93;3.70;;;;;;;8.20;91.76;96462.03;4393223;32;20279;-64
2021/12/13 12:12:12;;;;;;;3.70;3.47;;;;;;;8.25;91.75;96464.72;4405604;32;20305;-63
2021/12/13 12:14:38;;;;;;;4.50;4.20;;;;;;;8.34;91.66;96454.50;4406562;32;20284;-64
2021/12/13 12:17:05;;;;;;;4.47;4.17;;;;;;;8.02;92.32;96458.94;4406512;32;20320;-64
2021/12/13 12:19:40;;;;;;;4.53;4.23;;;;;;;8.38;91.82;96452.16;4420786;32;20183;-63